Boa Esperanca, Brazil
Current Conditions -  °F | °C
As of 10:00 AM on Tuesday 27 Jan 2015 (Local Time) from SBBQ Reporting Station
Broken Clouds Broken Clouds  
Wind Chill: 70°   Ceiling: 10000
Heat Index: 70°   Visibility: 6mi
Dew Point: 63°   Wind: 2mph
Humidity: 78%   Direction: 330°NNW
Pressure: 30.21"   Gusts: NA
Location:  21.09°S, 45.57°W
Report Text: SBBQ 271200Z 33002KT 9999 FEW008 BKN100 21/17 Q1023
Loading
Personal Weather Stations






























Interactive Weather Map New forecast layout! Learn more

10-Day Weather Forecast

Advertisements
Track Severe Weather on mobile